Radium Hot Springs, Canada
Current Conditions -  °F | °C
As of 5:00 PM on Sunday 21 Dec 2014 (Local Time) from CYGE Reporting Station
Light Fog Light Fog  
Wind Chill: 28°   Ceiling: Unl
Heat Index: 28°   Visibility: 20mi
Dew Point: 28°   Wind: 0mph
Humidity: 100%   Direction: NA
Pressure: 29.71"   Gusts: NA
Location:  50.62°N, 116.08°W
Report Text: CYGE 220000Z 00000KT 20SM MIFG FEW004 SCT065 M02/M02 A2971 RMK ST1SC3 FG ON RUNWAY LAST OBS/NEXT 221400Z SLP092
Loading
Personal Weather Stations






























Interactive Weather Map New forecast layout! Learn more

10-Day Weather Forecast

Advertisements
Track Severe Weather on mobile